createdAt,value
2022-12-16T00:01:14.085Z,-3.54
2022-12-16T00:03:44.228Z,-3.54
2022-12-16T00:06:12.183Z,-3.55
2022-12-16T00:08:40.805Z,-3.54
2022-12-16T00:11:09.867Z,-3.54
2022-12-16T00:13:40.299Z,-3.56
2022-12-16T00:16:12.354Z,-3.59
2022-12-16T00:18:40.425Z,-3.60
2022-12-16T00:21:09.307Z,-3.60
2022-12-16T00:23:39.344Z,-3.67
2022-12-16T00:26:07.474Z,-3.68
2022-12-16T00:28:36.085Z,-3.69
2022-12-16T00:31:04.154Z,-3.68
2022-12-16T00:33:34.461Z,-3.78
2022-12-16T00:36:02.669Z,-3.81
2022-12-16T00:38:30.492Z,-3.77
2022-12-16T00:40:58.313Z,-3.72
2022-12-16T00:43:26.162Z,-3.69
2022-12-16T00:45:54.116Z,-3.73
2022-12-16T00:48:23.432Z,-3.78
2022-12-16T00:50:55.253Z,-3.78
2022-12-16T00:53:25.246Z,-3.79
2022-12-16T00:55:53.705Z,-3.77
2022-12-16T00:58:21.559Z,-3.77
2022-12-16T01:00:49.424Z,-3.75
2022-12-16T01:03:21.623Z,-3.74
2022-12-16T01:05:50.140Z,-3.74
2022-12-16T01:08:19.908Z,-3.74
2022-12-16T01:10:52.007Z,-3.72
2022-12-16T01:13:20.408Z,-3.75
2022-12-16T01:15:48.233Z,-3.76
2022-12-16T01:18:16.706Z,-3.75
2022-12-16T01:20:44.513Z,-3.76
2022-12-16T01:23:12.405Z,-3.79
2022-12-16T01:25:41.626Z,-3.77
2022-12-16T01:28:09.818Z,-3.76
2022-12-16T01:30:37.674Z,-3.75
2022-12-16T01:33:05.477Z,-3.75
2022-12-16T01:38:20.903Z,-3.78
2022-12-16T01:40:50.014Z,-3.79
2022-12-16T01:43:19.959Z,-3.78
2022-12-16T01:45:47.765Z,-3.76
2022-12-16T01:48:23.465Z,-3.80
2022-12-16T01:50:53.515Z,-3.79
2022-12-16T01:53:21.511Z,-3.76
2022-12-16T01:55:52.619Z,-3.75
2022-12-16T01:58:25.209Z,-3.72
2022-12-16T02:00:53.117Z,-3.69
2022-12-16T02:03:23.377Z,-3.64
2022-12-16T02:05:51.921Z,-3.60
2022-12-16T02:08:23.558Z,-3.61
2022-12-16T02:11:08.257Z,-3.54
2022-12-16T02:13:57.408Z,-3.49
2022-12-16T02:16:34.137Z,-3.44
2022-12-16T02:19:19.545Z,-3.43
2022-12-16T02:21:49.846Z,-3.40
2022-12-16T02:24:29.299Z,-3.38
2022-12-16T02:27:18.086Z,-3.38
2022-12-16T02:30:25.876Z,-3.36
2022-12-16T02:33:07.216Z,-3.32
2022-12-16T02:35:41.023Z,-3.27
2022-12-16T02:38:19.283Z,-3.23
2022-12-16T02:40:53.919Z,-3.19
2022-12-16T02:43:40.438Z,-3.19
2022-12-16T02:46:10.171Z,-3.20
2022-12-16T02:48:38.050Z,-3.15
2022-12-16T02:51:05.903Z,-3.09
2022-12-16T02:53:37.726Z,-3.05
2022-12-16T02:56:12.209Z,-3.08
2022-12-16T02:58:50.570Z,-3.04
2022-12-16T03:01:26.220Z,-3.00
2022-12-16T03:04:02.446Z,-2.96
2022-12-16T03:06:33.067Z,-2.96
2022-12-16T03:09:04.691Z,-2.96
2022-12-16T03:11:33.768Z,-2.98
2022-12-16T03:14:04.394Z,-2.96
2022-12-16T03:16:35.421Z,-2.94
2022-12-16T03:19:06.791Z,-2.94
2022-12-16T03:21:40.049Z,-2.91
2022-12-16T03:24:13.773Z,-2.89
2022-12-16T03:26:48.801Z,-2.86
2022-12-16T03:29:23.023Z,-2.80
2022-12-16T03:31:58.974Z,-2.76
2022-12-16T03:34:33.759Z,-2.71
2022-12-16T03:37:05.193Z,-2.65
2022-12-16T03:39:35.840Z,-2.62
2022-12-16T03:42:04.963Z,-2.59
2022-12-16T03:44:33.379Z,-2.58
2022-12-16T03:47:02.737Z,-2.56
2022-12-16T03:49:30.535Z,-2.53
2022-12-16T03:52:00.732Z,-2.49
2022-12-16T03:54:28.923Z,-2.45
2022-12-16T03:56:56.906Z,-2.44
2022-12-16T03:59:24.893Z,-2.45
2022-12-16T04:01:53.422Z,-2.47
2022-12-16T04:04:23.409Z,-2.44
2022-12-16T04:07:11.474Z,-2.41
2022-12-16T04:09:39.542Z,-2.49
2022-12-16T04:12:25.060Z,-2.56
2022-12-16T04:15:10.875Z,-2.60
2022-12-16T04:17:56.577Z,-2.76
2022-12-16T04:20:48.800Z,-2.84
2022-12-16T04:23:34.677Z,-2.91
2022-12-16T04:26:02.881Z,-2.93
2022-12-16T04:28:31.144Z,-2.92
2022-12-16T04:30:59.458Z,-2.90
2022-12-16T04:33:45.000Z,-2.91
2022-12-16T04:36:31.794Z,-2.92
2022-12-16T04:39:16.981Z,-3.00
2022-12-16T04:42:02.364Z,-3.03
2022-12-16T04:44:47.847Z,-3.09
2022-12-16T04:47:33.652Z,-3.10
2022-12-16T04:50:19.095Z,-3.06
2022-12-16T04:53:09.828Z,-3.07
2022-12-16T04:56:00.562Z,-3.13
2022-12-16T04:58:49.310Z,-3.15
2022-12-16T05:01:34.860Z,-3.14
2022-12-16T05:04:20.546Z,-3.17
2022-12-16T05:07:05.837Z,-3.24
2022-12-16T05:09:53.001Z,-3.24
2022-12-16T05:12:38.509Z,-3.20
2022-12-16T05:15:24.907Z,-3.19
2022-12-16T05:18:10.057Z,-3.20
2022-12-16T05:20:55.532Z,-3.22
2022-12-16T05:23:40.799Z,-3.29
2022-12-16T05:26:28.084Z,-3.35
2022-12-16T05:29:13.634Z,-3.35
2022-12-16T05:31:58.851Z,-3.40
2022-12-16T05:34:44.071Z,-3.39
2022-12-16T05:37:29.776Z,-3.38
2022-12-16T05:40:17.344Z,-3.48
2022-12-16T05:43:08.940Z,-3.50
2022-12-16T05:46:10.271Z,-3.57
2022-12-16T05:48:58.380Z,-3.56
2022-12-16T05:51:52.020Z,-3.56
2022-12-16T05:54:38.649Z,-3.52
2022-12-16T05:57:24.415Z,-3.49
2022-12-16T06:00:19.873Z,-3.47
2022-12-16T06:03:11.425Z,-3.49
2022-12-16T06:06:07.494Z,-3.52
2022-12-16T06:09:09.000Z,-3.51
2022-12-16T06:11:54.767Z,-3.50
2022-12-16T06:14:40.708Z,-3.48
2022-12-16T06:17:28.179Z,-3.48
2022-12-16T06:20:14.367Z,-3.50
2022-12-16T06:23:10.388Z,-3.53
2022-12-16T06:25:56.218Z,-3.51
2022-12-16T06:28:45.901Z,-3.53
2022-12-16T06:31:33.498Z,-3.51
2022-12-16T06:34:21.285Z,-3.48
2022-12-16T06:40:07.481Z,-3.28
2022-12-16T06:42:52.868Z,-3.23
2022-12-16T06:46:55.711Z,-3.14
2022-12-16T06:49:45.169Z,-3.05
2022-12-16T06:56:47.282Z,-3.02
2022-12-16T06:59:32.394Z,-2.94
2022-12-16T07:02:17.684Z,-2.85
2022-12-16T07:05:02.950Z,-2.76
2022-12-16T07:07:48.141Z,-2.67
2022-12-16T07:10:33.361Z,-2.61
2022-12-16T07:13:19.739Z,-2.61
2022-12-16T07:16:05.843Z,-2.60
2022-12-16T07:18:51.074Z,-2.59
2022-12-16T07:21:36.434Z,-2.58
2022-12-16T07:24:21.903Z,-2.55
2022-12-16T07:27:07.307Z,-2.54
2022-12-16T07:29:54.154Z,-2.52
2022-12-16T07:32:39.759Z,-2.48
2022-12-16T07:35:25.633Z,-2.50
2022-12-16T07:38:11.063Z,-2.51
2022-12-16T07:40:56.865Z,-2.49
2022-12-16T07:43:42.250Z,-2.50
2022-12-16T07:46:29.063Z,-2.46
2022-12-16T14:20:09.180Z,1.44
2022-12-16T14:23:10.678Z,1.46
2022-12-16T14:26:00.736Z,1.44
2022-12-16T14:28:48.310Z,1.46
2022-12-16T14:31:37.532Z,1.36
2022-12-16T14:34:23.633Z,1.39
2022-12-16T14:37:09.198Z,1.41
2022-12-16T14:40:01.582Z,1.42
2022-12-16T14:42:48.703Z,1.35
2022-12-16T14:45:51.664Z,1.41
2022-12-16T14:49:06.345Z,1.42
2022-12-16T14:55:16.872Z,1.40
2022-12-16T14:58:13.168Z,1.38
2022-12-16T15:01:00.239Z,1.38
2022-12-16T15:03:54.952Z,1.38
2022-12-16T15:06:46.052Z,1.37
2022-12-16T15:09:42.091Z,1.26
2022-12-16T15:14:09.827Z,1.15
2022-12-16T15:16:01.221Z,1.13
2022-12-16T15:19:13.685Z,1.13
2022-12-16T15:22:09.415Z,1.05
2022-12-16T15:25:03.319Z,1.03
2022-12-16T16:11:57.922Z,0.95
2022-12-16T16:15:24.255Z,0.99
2022-12-16T16:21:42.553Z,1.16
2022-12-16T16:24:28.052Z,1.20
2022-12-16T17:34:08.289Z,1.43
2022-12-16T17:36:59.407Z,1.45
2022-12-16T17:39:45.054Z,1.49
2022-12-16T17:42:30.620Z,1.52
2022-12-16T17:45:15.919Z,1.52
2022-12-16T17:48:02.833Z,1.52
2022-12-16T17:50:51.476Z,1.52
2022-12-16T17:53:37.126Z,1.54
2022-12-16T17:56:26.240Z,1.53
2022-12-16T17:59:13.394Z,1.51
2022-12-16T18:01:58.704Z,1.50
2022-12-16T18:07:34.365Z,1.56
2022-12-16T18:10:20.969Z,1.58
2022-12-16T18:13:06.508Z,1.59
2022-12-16T18:15:52.073Z,1.58
2022-12-16T18:22:05.515Z,1.56
2022-12-16T18:25:09.594Z,1.55
2022-12-16T18:28:00.736Z,1.57
2022-12-16T18:30:46.308Z,1.58
2022-12-16T18:33:33.515Z,1.57
2022-12-16T18:36:24.649Z,1.57
2022-12-16T18:39:09.909Z,1.56
2022-12-16T18:42:02.245Z,1.59
2022-12-16T18:44:59.185Z,1.56
2022-12-16T18:47:48.946Z,1.55
2022-12-16T18:50:45.982Z,1.57
2022-12-16T18:53:31.393Z,1.52
2022-12-16T18:56:20.849Z,1.53
2022-12-16T18:59:07.785Z,1.51
2022-12-16T19:01:53.461Z,1.52
2022-12-16T19:08:34.423Z,1.57
2022-12-16T19:11:21.922Z,1.58
2022-12-16T20:24:13.884Z,1.47
2022-12-16T20:27:19.692Z,1.45
2022-12-16T20:30:25.529Z,1.45
2022-12-16T20:33:16.879Z,1.43
2022-12-16T20:47:02.161Z,1.42
2022-12-16T21:07:48.177Z,1.32
2022-12-16T21:14:30.504Z,1.31
2022-12-16T21:17:29.101Z,1.33
2022-12-16T21:20:22.414Z,1.36
2022-12-16T21:23:17.330Z,1.33
2022-12-16T21:43:23.830Z,1.41
2022-12-16T21:49:39.391Z,1.33
2022-12-16T21:52:40.567Z,1.31
2022-12-16T21:55:31.453Z,1.33
2022-12-16T21:58:18.681Z,1.34
2022-12-16T22:01:04.187Z,1.36
2022-12-16T22:03:54.460Z,1.42
2022-12-16T22:06:48.858Z,1.44
2022-12-16T22:09:58.253Z,1.43
2022-12-16T22:12:45.021Z,1.44
2022-12-16T22:18:12.747Z,1.44
2022-12-16T22:20:58.203Z,1.42
2022-12-16T22:23:47.526Z,1.44
2022-12-16T22:26:32.914Z,1.44
2022-12-16T22:29:18.881Z,1.45
2022-12-16T22:32:04.198Z,1.47
2022-12-16T22:34:50.640Z,1.50
2022-12-16T22:37:36.156Z,1.49
2022-12-16T22:40:21.315Z,1.46
2022-12-16T22:43:07.038Z,1.45
2022-12-16T22:45:52.561Z,1.43
2022-12-16T22:48:43.067Z,1.42
2022-12-16T22:51:33.156Z,1.41
2022-12-16T22:54:18.887Z,1.41
2022-12-16T22:57:04.866Z,1.42
2022-12-16T22:59:50.127Z,1.40
2022-12-16T23:02:35.611Z,1.39
2022-12-16T23:05:27.139Z,1.41
2022-12-16T23:08:17.212Z,1.41
2022-12-16T23:11:02.407Z,1.43
2022-12-16T23:13:47.596Z,1.47
2022-12-16T23:16:32.992Z,1.46
2022-12-16T23:19:18.841Z,1.46
2022-12-16T23:22:03.909Z,1.46
2022-12-16T23:24:59.313Z,1.49
2022-12-16T23:27:44.793Z,1.47
2022-12-16T23:30:30.548Z,1.48
2022-12-16T23:33:16.698Z,1.50
2022-12-16T23:36:02.178Z,1.47
2022-12-16T23:38:47.420Z,1.45
2022-12-16T23:41:33.084Z,1.43
2022-12-16T23:44:18.492Z,1.43
2022-12-16T23:47:03.862Z,1.38
2022-12-16T23:49:49.024Z,1.37
2022-12-16T23:52:34.644Z,1.38
2022-12-16T23:55:19.857Z,1.37
2022-12-16T23:58:08.728Z,1.34
